Fairbanks, AK (99712)

4:03 PM AKDT on August 30, 2016 (GMT -0800)
| | Change Station

Elev -9999 ft 0.00 °N, 0.00 °E | Updated

Clear
Clear
59 °F
Feels Like 59 °F
N
9
Wind Variable Wind from ENE
Gusts 13 mph

Today
High -- | Low -- °F
--% Chance of Precip.
Yesterday
High -- | Low -- °F
Precip. -- in
Pressure 30.24 in
Visibility 10.0 miles
Clouds Few 22000 ft
Dew Point 40 °F
Humidity 48%
Rainfall --
Snow Depth Not available.
6:21 AM 9:11 PM
Waning Crescent, 2% visible
METAR PAFB 302358Z 07007KT 10SM FEW220 20/01 A3023 RMK AO2A SLP240 T01960011 10197 20137 57012
Pressure 30.24 in
Visibility 10.0 miles
Clouds Few 22000 ft
Dew Point 40 °F
Humidity 48%
Rainfall --
Snow Depth Not available.
6:21 AM 9:11 PM
Waning Crescent, 2% visible
METAR PAFB 302358Z 07007KT 10SM FEW220 20/01 A3023 RMK AO2A SLP240 T01960011 10197 20137 57012

10-Day Weather Forecast

Almanac

Astronomy

Aug. 30, 2016 Rise Set
Actual Time
Civil Twilight
Nautical Twilight
Astronomical Twilight
Moon
Length of Visible Light
Length of Day
Tomorrow will be .
, % of the Moon is Illuminated

Today's Extremes

State Highs State Lows

Community

WunderPhotos

Upload Photos

1,935,958 photos uploaded!

WunderBlog® & News

Nearby

Air Quality

  Air Quality AQ Index Pollutant
Not available.

Snow Depth

Station Depth Elevation

Earthquake Activity

City Distance Mag. Time & Date
Minimum magnitude displayed is 2.5.

Coastal Water Temperatures

Place Temperature

Stations

Nearby Weather Stations

Station Location Temp. Windchill Dew Point Humidity Wind Precip. Elev Updated Type
                   

Watches & Warnings

There are currently no watches in effect.